createdAt,value
2019-05-13T00:02:51.009Z,1.97
2019-05-13T00:07:45.098Z,1.67
2019-05-13T00:12:39.873Z,1.60
2019-05-13T00:17:33.900Z,1.70
2019-05-13T00:22:27.797Z,1.30
2019-05-13T00:27:23.469Z,1.57
2019-05-13T00:32:17.538Z,1.87
2019-05-13T00:37:11.850Z,1.67
2019-05-13T00:42:06.998Z,1.70
2019-05-13T00:47:00.801Z,1.60
2019-05-13T00:51:54.485Z,1.57
2019-05-13T00:56:48.403Z,1.97
2019-05-13T01:01:44.056Z,1.63
2019-05-13T01:06:38.421Z,1.50
2019-05-13T01:11:34.354Z,1.73
2019-05-13T01:16:27.937Z,1.93
2019-05-13T01:21:23.847Z,1.70
2019-05-13T01:26:17.463Z,1.50
2019-05-13T01:31:13.120Z,1.57
2019-05-13T01:36:06.584Z,1.90
2019-05-13T01:41:00.253Z,1.57
2019-05-13T01:45:54.106Z,1.60
2019-05-13T01:50:47.927Z,1.80
2019-05-13T01:55:44.043Z,1.87
2019-05-13T02:00:37.577Z,1.87
2019-05-13T02:05:33.651Z,1.53
2019-05-13T02:10:44.560Z,1.73
2019-05-13T02:15:38.460Z,1.43
2019-05-13T02:20:33.531Z,1.77
2019-05-13T02:25:27.436Z,1.70
2019-05-13T02:30:21.157Z,1.60
2019-05-13T02:35:15.048Z,1.60
2019-05-13T02:40:08.831Z,1.70
2019-05-13T02:45:03.709Z,1.57
2019-05-13T02:50:00.714Z,1.63
2019-05-13T02:54:53.475Z,1.70
2019-05-13T02:59:47.334Z,1.73
2019-05-13T03:04:43.475Z,1.90
2019-05-13T03:09:36.980Z,1.83
2019-05-13T03:14:32.421Z,2.10
2019-05-13T03:19:26.331Z,1.80
2019-05-13T03:24:22.788Z,1.50
2019-05-13T03:29:16.012Z,1.80
2019-05-13T03:34:14.937Z,1.97
2019-05-13T03:39:12.403Z,2.00
2019-05-13T03:44:13.112Z,1.90
2019-05-13T03:49:13.258Z,2.10
2019-05-13T03:54:06.284Z,2.10
2019-05-13T03:59:02.747Z,1.90
2019-05-13T04:03:56.066Z,2.00
2019-05-13T04:08:53.884Z,2.23
2019-05-13T04:13:47.520Z,2.50
2019-05-13T04:18:42.851Z,2.37
2019-05-13T04:23:36.856Z,2.17
2019-05-13T04:28:32.980Z,2.60
2019-05-13T04:33:26.488Z,2.63
2019-05-13T04:38:22.793Z,3.00
2019-05-13T04:43:16.121Z,2.77
2019-05-13T04:48:12.752Z,2.90
2019-05-13T04:53:05.736Z,2.63
2019-05-13T04:58:03.150Z,3.07
2019-05-13T05:03:22.796Z,2.60
2019-05-13T05:08:42.136Z,2.60
2019-05-13T05:14:34.604Z,2.43
2019-05-13T05:20:07.595Z,2.40
2019-05-13T05:25:23.128Z,2.23
2019-05-13T05:31:07.740Z,2.83
2019-05-13T05:36:34.186Z,2.57
2019-05-13T05:41:31.724Z,2.70
2019-05-13T05:46:26.055Z,2.47
2019-05-13T05:51:22.667Z,2.53
2019-05-13T05:56:17.460Z,3.10
2019-05-13T06:01:13.085Z,2.53
2019-05-13T06:06:07.217Z,2.73
2019-05-13T06:11:01.385Z,2.60
2019-05-13T06:15:55.588Z,2.83
2019-05-13T06:20:51.195Z,2.77
2019-05-13T06:25:45.355Z,3.10
2019-05-13T06:30:41.452Z,3.10
2019-05-13T06:35:35.089Z,3.20
2019-05-13T06:40:28.979Z,2.87
2019-05-13T06:45:22.914Z,3.30
2019-05-13T06:50:17.006Z,2.67
2019-05-13T06:55:11.671Z,2.37
2019-05-13T07:00:06.190Z,2.20
2019-05-13T07:05:02.365Z,2.17
2019-05-13T07:09:56.231Z,1.70
2019-05-13T07:14:51.848Z,2.70
2019-05-13T07:19:45.951Z,2.17
2019-05-13T07:24:41.472Z,1.87
2019-05-13T07:29:35.790Z,1.60
2019-05-13T07:34:32.965Z,2.00
2019-05-13T07:39:26.224Z,2.23
2019-05-13T07:44:22.211Z,2.00
2019-05-13T07:49:15.861Z,1.70
2019-05-13T07:54:11.354Z,2.03
2019-05-13T07:59:05.535Z,2.00
2019-05-13T08:04:01.982Z,2.03
2019-05-13T08:08:55.415Z,2.03
2019-05-13T08:13:51.740Z,2.33
2019-05-13T08:18:45.905Z,2.10
2019-05-13T08:23:43.515Z,2.20
2019-05-13T08:28:56.552Z,2.93
2019-05-13T08:33:34.974Z,1.50
2019-05-13T08:38:31.884Z,1.80
2019-05-13T08:43:25.719Z,1.80
2019-05-13T08:48:22.206Z,2.20
2019-05-13T08:53:15.336Z,1.77
2019-05-13T08:58:09.414Z,1.83
2019-05-13T09:03:06.185Z,1.80
2019-05-13T09:08:01.048Z,1.77
2019-05-13T09:12:55.176Z,1.53
2019-05-13T09:17:51.620Z,1.80
2019-05-13T09:22:45.007Z,1.20
2019-05-13T09:27:39.144Z,1.80
2019-05-13T09:32:33.216Z,1.80
2019-05-13T09:37:28.220Z,2.13
2019-05-13T09:42:22.114Z,1.50
2019-05-13T09:47:16.129Z,1.70
2019-05-13T09:52:11.954Z,1.10
2019-05-13T09:57:05.525Z,1.20
2019-05-13T10:02:02.525Z,1.00
2019-05-13T10:06:55.146Z,1.37
2019-05-13T10:11:51.751Z,1.30
2019-05-13T10:16:44.966Z,1.67
2019-05-13T10:21:38.786Z,1.30
2019-05-13T10:26:32.756Z,1.10
2019-05-13T10:31:26.752Z,1.20
2019-05-13T10:36:22.292Z,1.40
2019-05-13T10:41:16.562Z,1.20
2019-05-13T10:46:12.789Z,1.27
2019-05-13T10:51:07.879Z,1.20
2019-05-13T10:56:03.094Z,1.40
2019-05-13T11:00:57.951Z,1.00
2019-05-13T11:05:52.998Z,1.10
2019-05-13T11:10:52.796Z,1.00
2019-05-13T11:15:46.145Z,1.20
2019-05-13T11:20:42.138Z,1.20
2019-05-13T11:25:36.030Z,1.50
2019-05-13T11:30:31.933Z,1.60
2019-05-13T11:35:25.852Z,1.60
2019-05-13T11:40:22.496Z,1.30
2019-05-13T11:45:16.598Z,1.50
2019-05-13T11:50:11.748Z,2.10
2019-05-13T11:55:07.982Z,1.40
2019-05-13T12:00:04.339Z,1.37
2019-05-13T12:05:00.176Z,1.30
2019-05-13T12:09:54.542Z,2.23
2019-05-13T12:15:20.266Z,1.30
2019-05-13T12:19:44.355Z,1.40
2019-05-13T12:24:41.317Z,1.30
2019-05-13T12:29:35.725Z,2.13
2019-05-13T12:34:39.510Z,1.53
2019-05-13T12:39:27.601Z,1.50
2019-05-13T12:44:23.315Z,2.00
2019-05-13T12:49:17.648Z,1.70
2019-05-13T12:54:13.534Z,1.80
2019-05-13T12:59:07.447Z,1.77
2019-05-13T13:04:03.717Z,1.60
2019-05-13T13:08:57.916Z,1.83
2019-05-13T13:13:58.982Z,2.20
2019-05-13T13:18:47.627Z,1.97
2019-05-13T13:23:42.761Z,2.10
2019-05-13T13:28:36.939Z,1.93
2019-05-13T13:33:34.146Z,1.70
2019-05-13T13:38:26.678Z,1.93
2019-05-13T13:43:24.592Z,1.50
2019-05-13T13:48:16.902Z,2.33
2019-05-13T13:53:14.124Z,1.90
2019-05-13T13:58:06.297Z,1.57
2019-05-13T14:03:06.033Z,1.90
2019-05-13T14:07:56.526Z,2.00
2019-05-13T14:12:52.451Z,1.50
2019-05-13T14:17:46.404Z,1.77
2019-05-13T14:22:41.932Z,1.53
2019-05-13T14:27:36.151Z,1.50
2019-05-13T14:32:32.107Z,1.53
2019-05-13T14:37:26.217Z,1.97
2019-05-13T14:42:22.785Z,1.70
2019-05-13T14:47:15.952Z,1.60
2019-05-13T14:52:11.976Z,1.70
2019-05-13T14:57:06.332Z,1.93
2019-05-13T15:02:01.500Z,1.90
2019-05-13T15:06:55.507Z,2.10
2019-05-13T15:11:52.528Z,2.00
2019-05-13T15:17:00.598Z,1.87
2019-05-13T15:21:41.699Z,1.60
2019-05-13T15:26:35.860Z,2.00
2019-05-13T15:31:31.630Z,2.00
2019-05-13T15:36:25.692Z,2.60
2019-05-13T15:41:19.879Z,2.17
2019-05-13T15:46:14.137Z,1.90
2019-05-13T15:51:08.226Z,2.37
2019-05-13T15:56:02.916Z,2.07
2019-05-13T16:00:57.300Z,2.17
2019-05-13T16:05:51.783Z,1.87
2019-05-13T16:10:45.603Z,1.97
2019-05-13T16:15:41.651Z,1.90
2019-05-13T16:20:35.686Z,1.80
2019-05-13T16:25:31.804Z,2.33
2019-05-13T16:30:25.614Z,2.00
2019-05-13T16:35:22.296Z,1.80
2019-05-13T16:40:17.109Z,2.90
2019-05-13T16:45:12.583Z,1.77
2019-05-13T16:50:11.669Z,2.00
2019-05-13T16:55:06.259Z,2.17
2019-05-13T17:00:02.407Z,2.67
2019-05-13T17:04:57.108Z,2.03
2019-05-13T17:09:52.161Z,2.10
2019-05-13T17:14:46.292Z,1.87
2019-05-13T17:19:44.348Z,1.90
2019-05-13T17:24:38.539Z,1.70
2019-05-13T17:29:32.431Z,1.80
2019-05-13T17:34:26.430Z,2.10
2019-05-13T17:39:21.320Z,1.63
2019-05-13T17:44:16.383Z,2.70
2019-05-13T17:49:11.832Z,2.30
2019-05-13T17:54:05.945Z,1.73
2019-05-13T17:58:59.897Z,2.30
2019-05-13T18:03:53.929Z,2.33
2019-05-13T18:08:47.941Z,1.90
2019-05-13T18:13:43.726Z,2.13
2019-05-13T18:18:44.129Z,1.93
2019-05-13T18:23:33.313Z,2.23
2019-05-13T18:28:31.457Z,2.60
2019-05-13T18:33:24.552Z,1.87
2019-05-13T18:38:18.530Z,2.00
2019-05-13T18:43:13.529Z,2.03
2019-05-13T18:48:07.318Z,1.90
2019-05-13T18:53:01.914Z,1.90
2019-05-13T18:57:55.930Z,2.00
2019-05-13T19:02:49.906Z,2.30
2019-05-13T19:07:43.897Z,2.50
2019-05-13T19:12:37.827Z,2.73
2019-05-13T19:17:32.335Z,2.00
2019-05-13T19:22:26.508Z,2.70
2019-05-13T19:27:21.590Z,2.90
2019-05-13T19:32:15.809Z,2.90
2019-05-13T19:37:11.511Z,3.67
2019-05-13T19:42:05.662Z,3.10
2019-05-13T19:47:01.969Z,2.47
2019-05-13T19:51:55.449Z,2.87
2019-05-13T19:56:51.859Z,3.07
2019-05-13T20:01:45.007Z,4.10
2019-05-13T20:06:41.274Z,2.60
2019-05-13T20:11:34.719Z,3.10
2019-05-13T20:16:28.612Z,2.37
2019-05-13T20:21:22.415Z,2.53
2019-05-13T20:26:16.381Z,2.70
2019-05-13T20:31:11.111Z,1.90
2019-05-13T20:36:05.198Z,2.63
2019-05-13T20:41:01.361Z,3.10
2019-05-13T20:45:54.917Z,2.50
2019-05-13T20:50:51.791Z,2.50
2019-05-13T20:55:44.930Z,2.70
2019-05-13T21:00:42.192Z,2.40
2019-05-13T21:05:36.760Z,1.87
2019-05-13T21:10:31.479Z,2.40
2019-05-13T21:15:25.395Z,2.13
2019-05-13T21:20:25.049Z,2.30
2019-05-13T21:25:15.960Z,2.40
2019-05-13T21:30:11.973Z,2.60
2019-05-13T21:35:05.983Z,2.90
2019-05-13T21:39:59.870Z,2.30
2019-05-13T21:44:53.773Z,2.30
2019-05-13T21:49:47.663Z,2.10
2019-05-13T21:54:42.194Z,2.07
2019-05-13T21:59:38.455Z,2.23
2019-05-13T22:04:32.791Z,2.33
2019-05-13T22:09:26.895Z,2.10
2019-05-13T22:14:21.029Z,2.00
2019-05-13T22:19:15.017Z,2.23
2019-05-13T22:24:08.900Z,1.80
2019-05-13T22:29:02.989Z,2.10
2019-05-13T22:33:57.089Z,1.67
2019-05-13T22:38:51.641Z,1.60
2019-05-13T22:43:55.656Z,1.60
2019-05-13T22:48:42.004Z,1.93
2019-05-13T22:53:36.240Z,1.80
2019-05-13T22:58:32.046Z,1.50
2019-05-13T23:03:25.942Z,1.90
2019-05-13T23:08:21.647Z,1.40
2019-05-13T23:13:15.337Z,1.47
2019-05-13T23:18:11.584Z,1.30
2019-05-13T23:23:04.972Z,1.03
2019-05-13T23:27:58.974Z,1.53
2019-05-13T23:32:53.055Z,1.40
2019-05-13T23:37:47.104Z,1.47
2019-05-13T23:42:41.145Z,1.80
2019-05-13T23:47:35.543Z,1.40
2019-05-13T23:52:31.201Z,1.53
2019-05-13T23:57:25.154Z,1.30
